Time;durP1;ratioP1;P1;durP2;ratioP2;P2;SDS_P1;SDS_P2;PMS_P1;PMS_P2;Temp;Humidity;BMP_temperature;BMP_pressure;BME280_temperature;BME280_humidity;BME280_pressure;Samples;Min_cycle;Max_cycle;Signal;HPM_P1;HPM_P2
2021/12/18 00:02:22;;;;;;;3.40;2.20;;;;;;;;;;5090418;28;20046;-61
2021/12/18 00:04:48;;;;;;;2.80;1.90;;;;;;;;;;5091651;28;20036;-60
2021/12/18 00:07:14;;;;;;;6.82;2.00;;;;;;;;;;5090363;28;20043;-63
2021/12/18 00:09:41;;;;;;;3.90;2.17;;;;;;;;;;5090046;28;20131;-63
2021/12/18 00:12:07;;;;;;;4.90;2.13;;;;;;;;;;5090050;28;20071;-63
2021/12/18 00:14:33;;;;;;;3.40;2.40;;;;;;;;;;5090805;28;20047;-60
2021/12/18 00:17:00;;;;;;;6.28;2.38;;;;;;;;;;5090977;28;20036;-60
2021/12/18 00:19:27;;;;;;;3.28;2.13;;;;;;;;;;5089598;28;20398;-61
2021/12/18 00:21:56;;;;;;;3.40;1.80;;;;;;;;;;5090641;28;20070;-61
2021/12/18 00:24:24;;;;;;;6.75;2.50;;;;;;;;;;5088450;28;20040;-61
2021/12/18 00:26:50;;;;;;;5.95;2.55;;;;;;;;;;5090959;28;20498;-61
2021/12/18 00:29:16;;;;;;;5.85;2.10;;;;;;;;;;5090195;28;20047;-60
2021/12/18 00:31:42;;;;;;;5.95;2.63;;;;;;;;;;5090535;28;20112;-60
2021/12/18 00:34:08;;;;;;;3.72;2.28;;;;;;;;;;5090723;28;20055;-62
2021/12/18 00:36:34;;;;;;;17.17;2.63;;;;;;;;;;5084729;28;20036;-61
2021/12/18 00:39:00;;;;;;;6.13;2.45;;;;;;;;;;5080972;28;20506;-61
2021/12/18 00:41:36;;;;;;;6.35;2.20;;;;;;;;;;5080835;28;20086;-63
2021/12/18 00:44:03;;;;;;;17.95;2.38;;;;;;;;;;5083856;28;20052;-61
2021/12/18 00:46:31;;;;;;;11.25;2.17;;;;;;;;;;5085134;28;20048;-62
2021/12/18 00:48:58;;;;;;;6.38;1.85;;;;;;;;;;5088000;28;20044;-61
2021/12/18 00:51:24;;;;;;;12.32;1.88;;;;;;;;;;5078953;28;20500;-61
2021/12/18 00:53:50;;;;;;;5.97;1.60;;;;;;;;;;5084230;28;20059;-61
2021/12/18 00:56:16;;;;;;;4.20;1.52;;;;;;;;;;5077795;28;20056;-61
2021/12/18 00:58:42;;;;;;;3.53;1.60;;;;;;;;;;5084066;28;20067;-61
2021/12/18 01:01:10;;;;;;;3.47;1.67;;;;;;;;;;5080655;28;20060;-61
2021/12/18 01:03:37;;;;;;;2.17;1.52;;;;;;;;;;5094430;28;20446;-60
2021/12/18 01:06:04;;;;;;;9.30;1.80;;;;;;;;;;5083339;28;20043;-61
2021/12/18 01:08:30;;;;;;;4.45;1.70;;;;;;;;;;5089977;28;20448;-62
2021/12/18 01:13:49;;;;;;;11.55;1.70;;;;;;;;;;5088969;28;20048;-61
2021/12/18 01:16:21;;;;;;;3.97;1.30;;;;;;;;;;5090021;28;20490;-61
2021/12/18 01:24:17;;;;;;;5.93;1.75;;;;;;;;;;5090370;28;20044;-61
2021/12/18 01:26:43;;;;;;;2.58;1.80;;;;;;;;;;5089754;28;20036;-59
2021/12/18 01:29:09;;;;;;;5.10;1.70;;;;;;;;;;5090336;28;20379;-62
2021/12/18 01:31:35;;;;;;;2.05;1.50;;;;;;;;;;5088193;28;20048;-60
2021/12/18 01:34:01;;;;;;;8.75;1.63;;;;;;;;;;5089041;28;20048;-61
2021/12/18 01:36:29;;;;;;;5.95;1.35;;;;;;;;;;5089437;28;20500;-62
2021/12/18 01:38:55;;;;;;;6.63;1.27;;;;;;;;;;5088411;28;20040;-61
2021/12/18 01:41:21;;;;;;;5.15;1.60;;;;;;;;;;5089607;28;20051;-58
2021/12/18 01:47:01;;;;;;;5.82;1.52;;;;;;;;;;5087852;28;20071;-61
2021/12/18 01:52:19;;;;;;;10.43;1.50;;;;;;;;;;5089255;28;20040;-61
2021/12/18 01:54:45;;;;;;;3.92;1.38;;;;;;;;;;5086757;28;20052;-61
2021/12/18 01:57:12;;;;;;;9.52;1.70;;;;;;;;;;5089080;28;20066;-62
2021/12/18 01:59:41;;;;;;;8.15;1.70;;;;;;;;;;5089412;28;20097;-62
2021/12/18 02:02:07;;;;;;;3.72;1.45;;;;;;;;;;5089152;28;20111;-62
2021/12/18 02:04:33;;;;;;;3.75;1.42;;;;;;;;;;5088845;28;20138;-61
2021/12/18 02:07:00;;;;;;;4.97;1.50;;;;;;;;;;5088963;28;20086;-61
2021/12/18 02:09:35;;;;;;;7.47;1.48;;;;;;;;;;5088720;28;20055;-60
2021/12/18 02:12:01;;;;;;;4.03;1.73;;;;;;;;;;5087813;28;20446;-60
2021/12/18 02:20:36;;;;;;;8.10;1.80;;;;;;;;;;5088921;28;20044;-60
2021/12/18 02:23:02;;;;;;;2.22;1.50;;;;;;;;;;5086956;28;20036;-60
2021/12/18 02:25:31;;;;;;;3.70;1.55;;;;;;;;;;5088834;28;20118;-61
2021/12/18 02:27:57;;;;;;;4.63;1.70;;;;;;;;;;5081544;28;20051;-60
2021/12/18 02:30:24;;;;;;;5.55;1.60;;;;;;;;;;5092217;28;20040;-61
2021/12/18 02:32:50;;;;;;;2.65;1.55;;;;;;;;;;5081756;28;20037;-61
2021/12/18 02:35:30;;;;;;;2.45;1.60;;;;;;;;;;5080917;28;20069;-61
2021/12/18 02:38:08;;;;;;;4.07;1.30;;;;;;;;;;5082640;28;20036;-62
2021/12/18 02:43:22;;;;;;;3.63;1.70;;;;;;;;;;5077619;28;20395;-61
2021/12/18 02:45:48;;;;;;;3.25;1.70;;;;;;;;;;5080004;28;20048;-60
2021/12/18 02:48:17;;;;;;;4.25;1.77;;;;;;;;;;5078315;28;20044;-60
2021/12/18 02:50:43;;;;;;;3.67;1.77;;;;;;;;;;5083043;28;20039;-61
2021/12/18 02:53:09;;;;;;;4.53;1.75;;;;;;;;;;5076551;28;20040;-61
2021/12/18 02:55:35;;;;;;;6.82;1.90;;;;;;;;;;5080113;28;20044;-61
2021/12/18 02:58:01;;;;;;;10.25;1.80;;;;;;;;;;5084938;28;20044;-60
2021/12/18 03:00:28;;;;;;;19.75;2.05;;;;;;;;;;5087570;28;20039;-60
2021/12/18 03:02:55;;;;;;;4.13;2.20;;;;;;;;;;5088879;28;20036;-60
2021/12/18 03:05:28;;;;;;;19.67;2.72;;;;;;;;;;5089062;28;20040;-62
2021/12/18 03:08:02;;;;;;;11.35;2.95;;;;;;;;;;5088702;28;20649;-60
2021/12/18 03:24:32;;;;;;;19.02;2.60;;;;;;;;;;5088488;28;20036;-62
2021/12/18 03:26:50;;;;;;;5.78;1.90;;;;;;;;;;5087993;28;20044;-62
2021/12/18 03:29:16;;;;;;;3.40;1.70;;;;;;;;;;5089995;28;20044;-60
2021/12/18 03:31:42;;;;;;;5.25;1.92;;;;;;;;;;5091926;28;20470;-61
2021/12/18 03:34:08;;;;;;;6.47;1.77;;;;;;;;;;5091881;28;20476;-60
2021/12/18 03:36:34;;;;;;;4.82;1.80;;;;;;;;;;5092018;28;20040;-60
2021/12/18 03:39:00;;;;;;;11.85;1.77;;;;;;;;;;5091794;28;20517;-61
2021/12/18 03:41:26;;;;;;;5.85;1.88;;;;;;;;;;5091489;28;20101;-61
2021/12/18 03:43:52;;;;;;;33.83;2.08;;;;;;;;;;5091750;28;20047;-62
2021/12/18 03:46:18;;;;;;;17.23;2.25;;;;;;;;;;5092135;28;20046;-61
2021/12/18 03:48:44;;;;;;;14.05;1.70;;;;;;;;;;5091707;28;20043;-62
2021/12/18 03:51:10;;;;;;;16.83;2.00;;;;;;;;;;5091730;28;20518;-60
2021/12/18 03:53:36;;;;;;;11.55;1.90;;;;;;;;;;5091230;28;20097;-62
2021/12/18 03:56:02;;;;;;;5.90;1.83;;;;;;;;;;5090581;28;20048;-62
2021/12/18 03:58:29;;;;;;;9.98;1.98;;;;;;;;;;5091988;28;20394;-61
2021/12/18 04:00:55;;;;;;;11.38;1.70;;;;;;;;;;5091387;28;20181;-60
2021/12/18 04:03:24;;;;;;;9.88;1.90;;;;;;;;;;5091387;28;20047;-61
2021/12/18 04:05:50;;;;;;;12.02;1.92;;;;;;;;;;5090325;28;20490;-60
2021/12/18 04:08:16;;;;;;;12.40;2.13;;;;;;;;;;5091621;28;20082;-61
2021/12/18 04:10:42;;;;;;;22.25;2.83;;;;;;;;;;5089810;28;20038;-60
2021/12/18 04:13:09;;;;;;;13.15;2.10;;;;;;;;;;5090732;28;20178;-61
2021/12/18 04:15:36;;;;;;;6.45;1.98;;;;;;;;;;5090175;28;20398;-62
2021/12/18 04:18:02;;;;;;;9.15;2.30;;;;;;;;;;5088871;28;20046;-63
2021/12/18 04:20:28;;;;;;;5.18;2.03;;;;;;;;;;5085203;28;20062;-61
2021/12/18 04:22:54;;;;;;;7.53;1.90;;;;;;;;;;5084745;28;20525;-62
2021/12/18 04:25:20;;;;;;;3.53;1.70;;;;;;;;;;5087583;28;20032;-62
2021/12/18 04:27:49;;;;;;;3.95;1.88;;;;;;;;;;5089008;28;20040;-60
2021/12/18 04:30:15;;;;;;;6.50;2.35;;;;;;;;;;5087711;28;20063;-61
2021/12/18 04:32:41;;;;;;;7.05;2.05;;;;;;;;;;5084206;28;20047;-61
2021/12/18 04:35:08;;;;;;;2.60;1.80;;;;;;;;;;5081151;28;20368;-60
2021/12/18 04:37:34;;;;;;;6.38;2.10;;;;;;;;;;5083442;28;20089;-62
2021/12/18 04:40:00;;;;;;;7.38;2.00;;;;;;;;;;5086271;28;20043;-62
2021/12/18 04:42:27;;;;;;;2.72;1.80;;;;;;;;;;5085780;28;20453;-61
2021/12/18 04:44:53;;;;;;;4.38;1.90;;;;;;;;;;5081096;28;20082;-60
2021/12/18 04:47:19;;;;;;;2.55;1.63;;;;;;;;;;5087604;28;20125;-61
2021/12/18 04:49:45;;;;;;;2.03;1.38;;;;;;;;;;5089136;28;20134;-59
2021/12/18 04:52:11;;;;;;;2.72;1.63;;;;;;;;;;5090533;28;20079;-60
2021/12/18 04:54:37;;;;;;;5.68;1.55;;;;;;;;;;5090416;28;20045;-63
2021/12/18 04:57:03;;;;;;;2.20;1.50;;;;;;;;;;5090351;28;20040;-59
2021/12/18 04:59:29;;;;;;;2.28;1.30;;;;;;;;;;5088686;28;20097;-59
2021/12/18 05:01:56;;;;;;;2.33;1.45;;;;;;;;;;5090797;28;20032;-61
2021/12/18 05:04:22;;;;;;;1.95;1.20;;;;;;;;;;5088563;28;20071;-62
2021/12/18 05:06:51;;;;;;;1.75;1.20;;;;;;;;;;5090114;28;20047;-61
2021/12/18 05:09:17;;;;;;;2.17;1.40;;;;;;;;;;5089954;28;20462;-62
2021/12/18 05:11:44;;;;;;;2.13;1.00;;;;;;;;;;5089978;28;20036;-61
2021/12/18 05:14:10;;;;;;;2.13;1.15;;;;;;;;;;5090422;28;20089;-61
2021/12/18 05:16:36;;;;;;;2.00;1.10;;;;;;;;;;5089438;28;20413;-63
2021/12/18 05:19:03;;;;;;;1.88;1.08;;;;;;;;;;5090109;28;20371;-60
2021/12/18 05:21:29;;;;;;;3.58;1.17;;;;;;;;;;5090062;28;20398;-62
2021/12/18 05:23:55;;;;;;;2.30;1.23;;;;;;;;;;5090207;28;20040;-62
2021/12/18 05:26:21;;;;;;;3.92;1.08;;;;;;;;;;5089844;28;20065;-60
2021/12/18 05:28:48;;;;;;;2.90;1.27;;;;;;;;;;5089387;28;20040;-61
2021/12/18 05:31:17;;;;;;;3.03;1.20;;;;;;;;;;5089571;28;20062;-58
2021/12/18 05:33:45;;;;;;;2.42;1.33;;;;;;;;;;5089762;28;20043;-61
2021/12/18 05:36:30;;;;;;;1.33;0.90;;;;;;;;;;5089515;28;20047;-62
2021/12/18 05:38:59;;;;;;;4.20;0.95;;;;;;;;;;5089741;28;20398;-62
2021/12/18 05:41:25;;;;;;;4.05;0.90;;;;;;;;;;5089630;28;20040;-62
2021/12/18 05:43:51;;;;;;;2.33;1.00;;;;;;;;;;5089020;28;20509;-62
2021/12/18 05:46:17;;;;;;;3.83;1.30;;;;;;;;;;5089141;28;20032;-60
2021/12/18 05:48:43;;;;;;;4.75;1.40;;;;;;;;;;5089295;28;20047;-61
2021/12/18 05:51:09;;;;;;;4.03;1.05;;;;;;;;;;5087110;28;20491;-61
2021/12/18 05:53:35;;;;;;;4.00;1.38;;;;;;;;;;5089401;28;20047;-60
2021/12/18 05:56:01;;;;;;;3.50;1.33;;;;;;;;;;5088987;28;20051;-61
2021/12/18 05:58:27;;;;;;;3.15;1.40;;;;;;;;;;5089436;28;20062;-61
2021/12/18 06:00:53;;;;;;;3.17;1.30;;;;;;;;;;5088810;28;20040;-59
2021/12/18 06:03:19;;;;;;;3.42;1.63;;;;;;;;;;5089283;28;20127;-60
2021/12/18 06:05:45;;;;;;;4.32;1.33;;;;;;;;;;5088168;28;20044;-61
2021/12/18 06:08:13;;;;;;;6.45;1.25;;;;;;;;;;5089261;28;20043;-62
2021/12/18 06:10:40;;;;;;;3.38;1.80;;;;;;;;;;5081680;28;20036;-60
2021/12/18 06:13:06;;;;;;;2.95;1.20;;;;;;;;;;5083226;28;20040;-61
2021/12/18 06:15:32;;;;;;;5.00;1.38;;;;;;;;;;5085735;28;20127;-60
2021/12/18 06:17:59;;;;;;;4.97;1.23;;;;;;;;;;5081988;28;20051;-62
2021/12/18 06:20:26;;;;;;;7.05;2.25;;;;;;;;;;5084112;28;20138;-61
2021/12/18 06:22:52;;;;;;;3.33;1.25;;;;;;;;;;5083046;28;20039;-61
2021/12/18 06:25:18;;;;;;;2.40;1.17;;;;;;;;;;5084119;28;20048;-59
2021/12/18 06:27:45;;;;;;;2.50;1.27;;;;;;;;;;5085005;28;20055;-60
2021/12/18 06:30:11;;;;;;;4.00;1.58;;;;;;;;;;5080246;28;20044;-61
2021/12/18 06:32:38;;;;;;;3.22;1.67;;;;;;;;;;5078230;28;20420;-60
2021/12/18 06:35:04;;;;;;;8.05;1.63;;;;;;;;;;5079329;28;20048;-62
2021/12/18 06:37:30;;;;;;;11.57;1.67;;;;;;;;;;5082782;28;20040;-62
2021/12/18 06:39:56;;;;;;;11.30;1.70;;;;;;;;;;5087018;28;20032;-62
2021/12/18 06:42:22;;;;;;;5.57;1.60;;;;;;;;;;5088064;28;20036;-61
2021/12/18 06:44:48;;;;;;;4.05;1.73;;;;;;;;;;5088398;28;20067;-61
2021/12/18 06:47:14;;;;;;;5.20;1.77;;;;;;;;;;5089008;28;20040;-59
2021/12/18 06:49:40;;;;;;;5.63;1.80;;;;;;;;;;5087535;28;20486;-62
2021/12/18 06:52:06;;;;;;;4.15;1.50;;;;;;;;;;5088686;28;20040;-61
2021/12/18 06:54:32;;;;;;;5.93;1.77;;;;;;;;;;5088391;28;20059;-62
2021/12/18 06:56:59;;;;;;;7.68;1.83;;;;;;;;;;5088977;28;20040;-61
2021/12/18 06:59:25;;;;;;;4.78;1.60;;;;;;;;;;5087085;28;20039;-61
2021/12/18 07:01:52;;;;;;;8.10;1.77;;;;;;;;;;5089051;28;20086;-63
2021/12/18 07:04:19;;;;;;;5.18;1.80;;;;;;;;;;5091695;28;20398;-60
2021/12/18 07:06:45;;;;;;;5.60;1.50;;;;;;;;;;5091532;28;20040;-62
2021/12/18 07:09:11;;;;;;;4.03;1.58;;;;;;;;;;5092844;28;20040;-60
2021/12/18 07:11:37;;;;;;;4.72;2.08;;;;;;;;;;5092091;28;20097;-61
2021/12/18 07:14:03;;;;;;;9.65;1.80;;;;;;;;;;5092240;28;20043;-63
2021/12/18 07:16:29;;;;;;;6.93;2.00;;;;;;;;;;5091858;28;20060;-61
2021/12/18 07:18:55;;;;;;;5.35;1.95;;;;;;;;;;5091924;28;20630;-62
2021/12/18 07:21:21;;;;;;;8.30;1.90;;;;;;;;;;5092066;28;20044;-61
2021/12/18 07:23:47;;;;;;;5.82;2.08;;;;;;;;;;5091080;28;20089;-62
2021/12/18 07:26:14;;;;;;;10.32;2.28;;;;;;;;;;5098482;28;20036;-62
2021/12/18 07:28:40;;;;;;;8.00;2.03;;;;;;;;;;5091171;28;20051;-63
2021/12/18 07:31:07;;;;;;;7.78;2.92;;;;;;;;;;5090606;28;20042;-62
2021/12/18 07:33:35;;;;;;;4.80;2.22;;;;;;;;;;5090548;28;20039;-62
2021/12/18 07:36:01;;;;;;;8.02;2.72;;;;;;;;;;5091186;28;20108;-62
2021/12/18 07:38:27;;;;;;;6.13;2.35;;;;;;;;;;5089461;28;20036;-61
2021/12/18 07:40:54;;;;;;;8.80;2.50;;;;;;;;;;5090914;28;20047;-60
2021/12/18 07:43:20;;;;;;;11.93;3.53;;;;;;;;;;5090464;28;20551;-59
2021/12/18 07:45:46;;;;;;;5.97;2.60;;;;;;;;;;5090792;28;20036;-61
2021/12/18 07:48:12;;;;;;;7.55;3.45;;;;;;;;;;5089823;28;20451;-60
2021/12/18 07:50:38;;;;;;;7.35;2.90;;;;;;;;;;5090989;28;20044;-61
2021/12/18 07:53:04;;;;;;;7.60;2.85;;;;;;;;;;5089806;28;20086;-61
2021/12/18 07:55:30;;;;;;;10.18;3.65;;;;;;;;;;5089624;28;20048;-63
2021/12/18 07:57:59;;;;;;;9.82;3.20;;;;;;;;;;5090290;28;20093;-63
2021/12/18 08:00:25;;;;;;;12.95;3.53;;;;;;;;;;5085517;28;20096;-62
2021/12/18 08:02:51;;;;;;;9.60;3.72;;;;;;;;;;5088255;28;20436;-62
2021/12/18 08:05:18;;;;;;;16.02;4.40;;;;;;;;;;5087829;28;20812;-62
2021/12/18 08:07:44;;;;;;;11.25;3.85;;;;;;;;;;5083937;28;20040;-59
2021/12/18 08:10:10;;;;;;;9.80;4.72;;;;;;;;;;5079917;28;20443;-63
2021/12/18 08:12:36;;;;;;;8.10;3.70;;;;;;;;;;5082856;28;20036;-59
2021/12/18 08:15:03;;;;;;;7.10;3.40;;;;;;;;;;5082257;28;20036;-61
2021/12/18 08:17:29;;;;;;;13.80;3.67;;;;;;;;;;5083126;28;20039;-62
2021/12/18 08:19:55;;;;;;;12.82;3.95;;;;;;;;;;5084717;28;20514;-62
2021/12/18 08:22:21;;;;;;;16.50;4.90;;;;;;;;;;5093608;28;20086;-61
2021/12/18 08:24:47;;;;;;;11.73;4.25;;;;;;;;;;5080651;28;20045;-61
2021/12/18 08:27:13;;;;;;;14.32;4.13;;;;;;;;;;5083364;28;20252;-60
2021/12/18 08:29:39;;;;;;;10.43;3.92;;;;;;;;;;5084539;28;20048;-61
2021/12/18 08:32:06;;;;;;;7.90;3.50;;;;;;;;;;5090023;28;20039;-60
2021/12/18 08:34:32;;;;;;;7.30;3.45;;;;;;;;;;5089159;28;20085;-60
2021/12/18 08:36:58;;;;;;;12.38;4.05;;;;;;;;;;5089908;28;20043;-60
2021/12/18 08:39:24;;;;;;;16.42;4.75;;;;;;;;;;5089286;28;20036;-62
2021/12/18 08:41:50;;;;;;;13.07;4.25;;;;;;;;;;5089974;28;20036;-59
2021/12/18 08:44:16;;;;;;;12.02;3.97;;;;;;;;;;5090021;28;20268;-61
2021/12/18 08:46:42;;;;;;;8.30;3.47;;;;;;;;;;5089954;28;20139;-62
2021/12/18 08:49:09;;;;;;;8.82;4.20;;;;;;;;;;5089274;28;20036;-62
2021/12/18 08:51:38;;;;;;;8.43;3.95;;;;;;;;;;5089517;28;20043;-61
2021/12/18 08:54:05;;;;;;;16.67;4.70;;;;;;;;;;5089535;28;20497;-63
2021/12/18 08:56:31;;;;;;;12.43;4.20;;;;;;;;;;5089875;28;20119;-63
2021/12/18 08:58:58;;;;;;;12.68;4.90;;;;;;;;;;5089550;28;20446;-59
2021/12/18 09:01:26;;;;;;;8.90;4.57;;;;;;;;;;5092810;28;20556;-61
2021/12/18 09:03:52;;;;;;;13.65;4.22;;;;;;;;;;5098146;28;20048;-60
2021/12/18 09:06:18;;;;;;;10.02;4.43;;;;;;;;;;5091745;28;20040;-60
2021/12/18 09:08:44;;;;;;;9.25;3.83;;;;;;;;;;5093991;28;20051;-61
2021/12/18 09:11:11;;;;;;;9.57;3.90;;;;;;;;;;5096858;28;20036;-60
2021/12/18 09:13:37;;;;;;;10.57;4.13;;;;;;;;;;5090074;28;20048;-62
2021/12/18 09:16:03;;;;;;;10.25;4.30;;;;;;;;;;5092028;28;20044;-62
2021/12/18 09:18:29;;;;;;;6.68;3.97;;;;;;;;;;5091490;28;20063;-63
2021/12/18 09:20:55;;;;;;;8.95;3.45;;;;;;;;;;5090023;28;20076;-59
2021/12/18 09:23:22;;;;;;;10.68;3.95;;;;;;;;;;5090420;28;20479;-62
2021/12/18 09:25:48;;;;;;;7.30;3.58;;;;;;;;;;5091394;28;20040;-61
2021/12/18 09:28:14;;;;;;;7.88;3.42;;;;;;;;;;5091685;28;20032;-62
2021/12/18 09:30:40;;;;;;;8.35;3.78;;;;;;;;;;5091421;28;20082;-62
2021/12/18 09:33:06;;;;;;;9.90;3.30;;;;;;;;;;5091244;28;20031;-60
2021/12/18 09:35:33;;;;;;;9.40;3.60;;;;;;;;;;5091472;28;20398;-60
2021/12/18 09:37:59;;;;;;;6.45;3.53;;;;;;;;;;5091490;28;20028;-63
2021/12/18 09:40:28;;;;;;;9.05;4.38;;;;;;;;;;5091680;28;20467;-62
2021/12/18 09:42:54;;;;;;;8.32;4.05;;;;;;;;;;5091497;28;20035;-61
2021/12/18 09:45:21;;;;;;;6.70;3.90;;;;;;;;;;5091350;28;20036;-59
2021/12/18 09:47:47;;;;;;;8.68;3.97;;;;;;;;;;5090871;28;20040;-62
2021/12/18 09:50:14;;;;;;;9.10;3.88;;;;;;;;;;5090103;28;20044;-61
2021/12/18 09:52:40;;;;;;;10.40;3.80;;;;;;;;;;5087296;28;20039;-62
2021/12/18 09:55:08;;;;;;;5.93;3.67;;;;;;;;;;5090543;28;20079;-60
2021/12/18 09:57:35;;;;;;;7.60;3.67;;;;;;;;;;5072761;28;20046;-60
2021/12/18 10:00:01;;;;;;;7.93;4.20;;;;;;;;;;5090582;28;20040;-63
2021/12/18 10:02:27;;;;;;;9.23;4.45;;;;;;;;;;5090606;28;20047;-62
2021/12/18 10:04:53;;;;;;;9.00;4.10;;;;;;;;;;5090463;28;20054;-63
2021/12/18 10:07:20;;;;;;;8.32;3.70;;;;;;;;;;5090810;28;20074;-59
2021/12/18 10:09:47;;;;;;;8.63;4.25;;;;;;;;;;5090318;28;20098;-61
2021/12/18 10:12:30;;;;;;;9.57;3.65;;;;;;;;;;5090441;28;20042;-61
2021/12/18 10:14:57;;;;;;;7.95;3.30;;;;;;;;;;5090201;28;20044;-61
2021/12/18 10:17:26;;;;;;;10.18;4.18;;;;;;;;;;5090793;28;20391;-62
2021/12/18 10:19:53;;;;;;;7.53;3.95;;;;;;;;;;5090399;28;20456;-63
2021/12/18 10:22:20;;;;;;;7.70;4.25;;;;;;;;;;5090384;28;20043;-62
2021/12/18 10:25:00;;;;;;;7.60;3.80;;;;;;;;;;5090302;28;20097;-62
2021/12/18 10:27:26;;;;;;;10.50;4.28;;;;;;;;;;5090444;28;20063;-61
2021/12/18 10:29:55;;;;;;;9.38;3.65;;;;;;;;;;5090677;28;20094;-61
2021/12/18 10:32:23;;;;;;;7.53;3.80;;;;;;;;;;5090815;28;20402;-63
2021/12/18 10:34:52;;;;;;;8.05;3.67;;;;;;;;;;5090290;28;20048;-59
2021/12/18 10:37:26;;;;;;;7.57;3.45;;;;;;;;;;5090783;28;20040;-62
2021/12/18 10:39:53;;;;;;;9.80;4.57;;;;;;;;;;5093226;28;20123;-62
2021/12/18 10:42:19;;;;;;;9.20;4.00;;;;;;;;;;5095087;28;20043;-62
2021/12/18 10:44:55;;;;;;;8.73;3.50;;;;;;;;;;5094721;28;20048;-63
2021/12/18 10:47:21;;;;;;;8.18;3.83;;;;;;;;;;5094767;28;20044;-61
2021/12/18 10:49:47;;;;;;;10.52;4.45;;;;;;;;;;5093503;28;20562;-61
2021/12/18 10:52:13;;;;;;;10.38;3.83;;;;;;;;;;5093181;28;20127;-61
2021/12/18 10:54:39;;;;;;;13.27;4.13;;;;;;;;;;5094338;28;20084;-62
2021/12/18 10:57:05;;;;;;;8.57;3.95;;;;;;;;;;5094506;28;20037;-62
2021/12/18 10:59:36;;;;;;;9.00;3.58;;;;;;;;;;5093064;28;20494;-60
2021/12/18 11:02:03;;;;;;;6.15;3.33;;;;;;;;;;5094213;28;20147;-61
2021/12/18 11:04:31;;;;;;;15.82;4.25;;;;;;;;;;5094411;28;20044;-63
2021/12/18 11:06:58;;;;;;;10.70;3.97;;;;;;;;;;5093992;28;20067;-61
2021/12/18 11:09:30;;;;;;;11.05;4.03;;;;;;;;;;5092895;28;20176;-61
2021/12/18 11:14:38;;;;;;;8.15;3.88;;;;;;;;;;5094081;28;20127;-62
2021/12/18 11:17:05;;;;;;;8.32;4.00;;;;;;;;;;5093962;28;20051;-62
2021/12/18 11:19:31;;;;;;;8.35;3.95;;;;;;;;;;5094038;28;20043;-61
2021/12/18 11:22:05;;;;;;;12.32;4.15;;;;;;;;;;5093992;28;20390;-62
2021/12/18 11:24:37;;;;;;;8.35;4.32;;;;;;;;;;5094091;28;20123;-62
2021/12/18 11:27:09;;;;;;;8.52;3.78;;;;;;;;;;5093726;28;20040;-61
2021/12/18 11:29:40;;;;;;;9.80;4.28;;;;;;;;;;5093963;28;20040;-61
2021/12/18 11:32:08;;;;;;;8.00;3.15;;;;;;;;;;5092407;28;20394;-64
2021/12/18 11:34:35;;;;;;;6.95;3.05;;;;;;;;;;5091499;28;20067;-61
2021/12/18 11:37:05;;;;;;;4.35;2.80;;;;;;;;;;5092186;28;20115;-61
2021/12/18 11:39:31;;;;;;;6.25;2.72;;;;;;;;;;5093356;28;20047;-62
2021/12/18 11:41:57;;;;;;;3.35;1.80;;;;;;;;;;5093178;28;20028;-61
2021/12/18 11:44:25;;;;;;;4.18;1.90;;;;;;;;;;5092989;28;20486;-61
2021/12/18 11:46:51;;;;;;;2.83;1.50;;;;;;;;;;5093338;28;20525;-61
2021/12/18 11:49:19;;;;;;;3.13;1.75;;;;;;;;;;5091922;28;20076;-61
2021/12/18 11:52:03;;;;;;;3.58;1.58;;;;;;;;;;5093141;28;20046;-62
2021/12/18 11:54:40;;;;;;;2.33;1.38;;;;;;;;;;5092730;28;20096;-62
2021/12/18 11:57:06;;;;;;;3.25;1.58;;;;;;;;;;5092618;28;20097;-60
2021/12/18 11:59:39;;;;;;;4.78;1.70;;;;;;;;;;5093027;28;20561;-61
2021/12/18 12:02:06;;;;;;;2.97;1.55;;;;;;;;;;5092956;28;20181;-62
2021/12/18 12:04:55;;;;;;;3.88;1.55;;;;;;;;;;5092666;28;20091;-64
2021/12/18 12:07:21;;;;;;;5.38;1.40;;;;;;;;;;5089797;28;20048;-61
2021/12/18 12:10:06;;;;;;;2.88;1.83;;;;;;;;;;5092901;28;20572;-61
2021/12/18 12:12:53;;;;;;;2.22;1.67;;;;;;;;;;5091417;28;20178;-61
2021/12/18 12:15:20;;;;;;;4.88;1.77;;;;;;;;;;5091469;28;20521;-60
2021/12/18 12:18:00;;;;;;;3.22;1.80;;;;;;;;;;5092758;28;20497;-63
2021/12/18 12:20:40;;;;;;;5.70;2.30;;;;;;;;;;5092847;28;20035;-62
2021/12/18 12:23:06;;;;;;;3.22;1.75;;;;;;;;;;5092647;28;20047;-61
2021/12/18 12:25:32;;;;;;;5.10;2.35;;;;;;;;;;5092832;28;20482;-61
2021/12/18 12:28:04;;;;;;;2.75;1.70;;;;;;;;;;5092670;28;20043;-60
2021/12/18 12:30:30;;;;;;;2.65;1.65;;;;;;;;;;5092827;28;20036;-59
2021/12/18 12:32:57;;;;;;;2.97;1.55;;;;;;;;;;5092806;28;20040;-62
2021/12/18 12:35:24;;;;;;;5.20;1.73;;;;;;;;;;5092507;28;20154;-62
2021/12/18 12:37:50;;;;;;;2.83;1.20;;;;;;;;;;5092669;28;20047;-62
2021/12/18 12:40:35;;;;;;;3.15;1.30;;;;;;;;;;5091259;28;20040;-61
2021/12/18 12:43:21;;;;;;;1.58;1.40;;;;;;;;;;5092591;28;20046;-61
2021/12/18 12:45:49;;;;;;;3.63;1.73;;;;;;;;;;5092739;28;20040;-63
2021/12/18 12:48:16;;;;;;;2.45;1.75;;;;;;;;;;5092269;28;20132;-62
2021/12/18 12:50:42;;;;;;;4.13;1.88;;;;;;;;;;5092246;28;20719;-60
2021/12/18 12:53:10;;;;;;;4.80;1.80;;;;;;;;;;5091889;28;20046;-61
2021/12/18 12:55:39;;;;;;;4.57;2.17;;;;;;;;;;5091928;28;20494;-63
2021/12/18 12:58:14;;;;;;;4.03;2.10;;;;;;;;;;5091992;28;20040;-62
2021/12/18 13:00:42;;;;;;;4.45;2.10;;;;;;;;;;5090337;28;20087;-63
2021/12/18 13:03:11;;;;;;;4.47;2.22;;;;;;;;;;5091864;28;20468;-62
2021/12/18 13:05:54;;;;;;;4.10;2.00;;;;;;;;;;5091797;28;20398;-63
2021/12/18 13:08:21;;;;;;;5.00;2.10;;;;;;;;;;5090385;28;20122;-61
2021/12/18 13:10:49;;;;;;;4.32;2.10;;;;;;;;;;5091967;28;20048;-60
2021/12/18 13:13:17;;;;;;;4.00;2.00;;;;;;;;;;5091794;28;20051;-62
2021/12/18 13:15:52;;;;;;;5.05;2.40;;;;;;;;;;5091753;28;20036;-60
2021/12/18 13:18:20;;;;;;;4.18;2.10;;;;;;;;;;5091553;28;20390;-61
2021/12/18 13:20:48;;;;;;;6.57;2.40;;;;;;;;;;5091740;28;20040;-62
2021/12/18 13:23:17;;;;;;;6.15;2.50;;;;;;;;;;5091660;28;20036;-62
2021/12/18 13:25:51;;;;;;;4.97;2.60;;;;;;;;;;5087829;28;20051;-61
2021/12/18 13:28:17;;;;;;;5.15;2.40;;;;;;;;;;5090924;28;20032;-60
2021/12/18 13:30:43;;;;;;;5.70;2.35;;;;;;;;;;5091164;28;20470;-62
2021/12/18 13:33:10;;;;;;;6.78;2.45;;;;;;;;;;5091386;28;20057;-62
2021/12/18 13:35:37;;;;;;;7.65;2.13;;;;;;;;;;5091196;28;20044;-62
2021/12/18 13:38:04;;;;;;;4.10;2.25;;;;;;;;;;5091373;28;20135;-63
2021/12/18 13:40:32;;;;;;;11.18;2.75;;;;;;;;;;5090897;28;20409;-61
2021/12/18 13:43:05;;;;;;;6.85;2.58;;;;;;;;;;5091090;28;20089;-62
2021/12/18 13:45:31;;;;;;;5.10;2.63;;;;;;;;;;5090745;28;20379;-62
2021/12/18 13:48:02;;;;;;;6.63;3.30;;;;;;;;;;5090868;28;20055;-62
2021/12/18 13:50:28;;;;;;;5.82;3.08;;;;;;;;;;5090936;28;20036;-62
2021/12/18 13:52:58;;;;;;;7.78;3.20;;;;;;;;;;5090697;28;20065;-62
2021/12/18 13:55:32;;;;;;;10.23;3.90;;;;;;;;;;5090532;28;20063;-62
2021/12/18 13:58:07;;;;;;;5.53;3.10;;;;;;;;;;5089840;28;20386;-61
2021/12/18 14:00:46;;;;;;;10.00;3.42;;;;;;;;;;5090705;28;20036;-60
2021/12/18 14:03:20;;;;;;;5.43;3.00;;;;;;;;;;5091026;28;20139;-63
2021/12/18 14:05:47;;;;;;;9.20;3.95;;;;;;;;;;5090699;28;20039;-62
2021/12/18 14:08:13;;;;;;;9.57;3.88;;;;;;;;;;5090799;28;20103;-62
2021/12/18 14:10:40;;;;;;;7.53;3.40;;;;;;;;;;5090701;28;20039;-61
2021/12/18 14:13:06;;;;;;;8.50;3.75;;;;;;;;;;5090009;28;20051;-60
2021/12/18 14:15:32;;;;;;;7.95;3.08;;;;;;;;;;5090704;28;20044;-63
2021/12/18 14:18:01;;;;;;;9.75;3.03;;;;;;;;;;5090757;28;20109;-60
2021/12/18 14:20:27;;;;;;;7.28;3.10;;;;;;;;;;5090835;28;20040;-62
2021/12/18 14:22:58;;;;;;;10.45;3.55;;;;;;;;;;5090425;28;20040;-60
2021/12/18 14:25:24;;;;;;;7.40;2.35;;;;;;;;;;5091002;28;20502;-60
2021/12/18 14:27:50;;;;;;;8.15;2.47;;;;;;;;;;5090818;28;20051;-60
2021/12/18 14:30:24;;;;;;;6.45;2.75;;;;;;;;;;5090879;28;20032;-62
2021/12/18 14:32:54;;;;;;;6.65;2.53;;;;;;;;;;5090509;28;20140;-62
2021/12/18 14:35:21;;;;;;;5.07;2.10;;;;;;;;;;5089324;28;20044;-60
2021/12/18 14:37:56;;;;;;;5.30;2.42;;;;;;;;;;5090475;28;20043;-61
2021/12/18 14:40:24;;;;;;;7.65;2.17;;;;;;;;;;5090724;28;20043;-63
2021/12/18 14:43:23;;;;;;;8.38;2.92;;;8.60;99.90;;;;;;5090578;28;20051;-61
2021/12/18 14:45:49;;;;;;;8.63;2.40;;;;;;;;;;5008251;28;20046;-62
2021/12/18 14:48:15;;;;;;;4.82;2.40;;;;;;;;;;5008419;28;20496;-63
2021/12/18 14:50:45;;;;;;;8.35;2.50;;;;;;;;;;5008341;28;20101;-64
2021/12/18 14:53:17;;;;;;;6.13;2.30;;;;;;;;;;5008325;28;20064;-61
2021/12/18 14:55:43;;;;;;;;;;;;;;;;;;5008372;28;20050;-62
2021/12/18 14:58:12;;;;;;;4.15;1.83;;;;;;;;;;5008323;28;19917;-61
2021/12/18 15:00:40;;;;;;;7.80;2.55;;;;;;;;;;5008288;28;20399;-60
2021/12/18 15:03:06;;;;;;;5.82;2.00;;;;;;;;;;4991690;28;20050;-61
2021/12/18 15:05:41;;;;;;;11.10;2.53;;;;;;;;;;5008292;28;20154;-60
2021/12/18 15:08:12;;;;;;;9.13;2.40;;;;;;;;;;5007953;28;20169;-62
2021/12/18 15:10:56;;;;;;;5.90;2.08;;;;;;;;;;5008240;28;20100;-60
2021/12/18 15:13:23;;;;;;;9.95;2.83;;;;;;;;;;5008341;28;20049;-61
2021/12/18 15:16:05;;;;;;;6.40;2.97;;;;;;;;;;4991843;28;20069;-62
2021/12/18 15:18:31;;;;;;;6.72;2.08;;;;;;;;;;5005848;28;20037;-64
2021/12/18 15:20:57;;;;;;;6.32;2.28;;;;;;;;;;5007793;28;20066;-62
2021/12/18 15:23:23;;;;;;;5.53;2.15;;;;;;;;;;5089920;28;20128;-63
2021/12/18 15:25:49;;;;;;;7.00;2.70;;;;;;;;;;5093418;28;20040;-63